Time;durP1;ratioP1;P1;durP2;ratioP2;P2;SDS_P1;SDS_P2;PMS_P1;PMS_P2;Temp;Humidity;BMP_temperature;BMP_pressure;BME280_temperature;BME280_humidity;BME280_pressure;Samples;Min_cycle;Max_cycle;Signal;HPM_P1;HPM_P2
2022/12/18 00:01:14;;;;;;;20.60;7.35;;;;;;;0.27;76.79;99321.81;4393456;32;20106;-81
2022/12/18 00:03:41;;;;;;;20.27;6.80;;;;;;;0.45;75.88;99330.63;4393747;32;20098;-81
2022/12/18 00:06:09;;;;;;;12.80;5.20;;;;;;;0.80;74.75;99328.69;4393649;32;20106;-81
2022/12/18 00:08:36;;;;;;;;;;;;;;;0.67;73.81;99327.63;4380060;32;20109;-81
2022/12/18 00:11:12;;;;;;;17.02;5.65;;;;;;;1.38;70.32;99338.09;4393447;32;20000;-81
2022/12/18 00:13:39;;;;;;;16.83;6.45;;;;;;;1.12;71.93;99326.66;4393625;32;20103;-81
2022/12/18 00:16:09;;;;;;;16.27;6.43;;;;;;;0.36;75.35;99333.00;4393280;32;20094;-81
2022/12/18 00:18:37;;;;;;;17.05;7.12;;;;;;;0.50;75.47;99345.09;4380664;32;20406;-81
2022/12/18 00:21:07;;;;;;;21.77;8.45;;;;;;;0.80;73.91;99344.78;4395472;32;20106;-81
2022/12/18 00:23:35;;;;;;;17.98;6.47;;;;;;;0.75;72.69;99358.25;4381756;32;20110;-81
2022/12/18 00:26:07;;;;;;;23.00;6.82;;;;;;;0.68;73.81;99354.72;4395723;32;20145;-81
2022/12/18 00:28:34;;;;;;;22.25;8.23;;;;;;;0.68;73.34;99359.81;4382128;32;20108;-81
2022/12/18 00:31:01;;;;;;;;;;;;;;;1.36;70.50;99365.16;4395483;32;20454;-81
2022/12/18 00:33:28;;;;;;;18.52;5.68;;;;;;;1.23;70.41;99363.25;4395796;32;20037;-81
2022/12/18 00:35:54;;;;;;;;;;;;;;;1.36;69.28;99367.69;4395883;32;20101;-81
2022/12/18 00:38:21;;;;;;;15.73;5.62;;;;;;;2.31;65.92;99379.12;4395468;32;19970;-81
2022/12/18 00:40:48;;;;;;;;;;;;;;;2.29;64.60;99384.22;4395532;32;20094;-81
2022/12/18 00:43:15;;;;;;;24.67;7.97;;;;;;;1.95;66.45;99382.09;4395775;32;20008;-81
2022/12/18 00:45:41;;;;;;;;;;;;;;;2.31;64.25;99384.22;4395687;32;20091;-81
2022/12/18 00:48:08;;;;;;;17.70;6.28;;;;;;;1.29;69.58;99380.31;4395506;32;19970;-81
2022/12/18 00:50:35;;;;;;;;;;;;;;;0.92;70.77;99377.16;4395482;32;20099;-81
2022/12/18 00:53:02;;;;;;;20.92;7.37;;;;;;;0.80;71.27;99390.50;4395457;32;19996;-81
2022/12/18 00:55:29;;;;;;;22.42;7.72;;;;;;;1.27;68.38;99381.94;4395474;32;20090;-81
2022/12/18 00:57:55;;;;;;;;;;;;;;;1.61;68.10;99390.97;4395508;32;20082;-81
2022/12/18 01:00:22;;;;;;;13.48;3.85;;;;;;;2.15;65.25;99401.03;4395310;32;19978;-81
2022/12/18 01:02:49;;;;;;;21.55;8.25;;;;;;;1.82;65.99;99404.00;4395460;32;20121;-81
2022/12/18 01:05:16;;;;;;;20.27;7.90;;;;;;;1.83;66.77;99398.06;4395131;32;20102;-81
2022/12/18 01:07:44;;;;;;;19.73;7.45;;;;;;;1.54;66.54;99400.19;4381779;32;20101;-81
2022/12/18 01:10:12;;;;;;;19.40;7.95;;;;;;;2.71;62.26;99399.97;4395231;32;20086;-81
2022/12/18 01:12:39;;;;;;;22.70;7.43;;;;;;;2.40;62.68;99397.06;4381430;32;20094;-81
2022/12/18 01:15:07;;;;;;;15.88;5.90;;;;;;;2.16;64.08;99396.78;4395394;32;20086;-81
2022/12/18 01:17:33;;;;;;;18.48;7.05;;;;;;;1.26;67.39;99392.94;4381776;32;20079;-81
2022/12/18 01:20:00;;;;;;;;;;;;;;;0.76;69.63;99393.84;4395203;32;20098;-81
2022/12/18 01:22:27;;;;;;;19.52;7.22;;;;;;;1.33;68.22;99390.53;4395415;32;19985;-81
2022/12/18 01:24:54;;;;;;;;;;;;;;;1.25;68.98;99389.56;4395650;32;20108;-81
2022/12/18 01:27:21;;;;;;;16.75;6.47;;;;;;;1.01;70.17;99392.56;4395102;32;19984;-81
2022/12/18 01:29:48;;;;;;;;;;;;;;;1.64;67.52;99391.84;4394573;32;20110;-81
2022/12/18 01:32:15;;;;;;;20.42;7.25;;;;;;;1.29;67.59;99400.66;4381822;32;19990;-81
2022/12/18 01:34:42;;;;;;;;;;;;;;;1.45;68.18;99400.91;4395392;32;20086;-81
2022/12/18 01:37:09;;;;;;;16.70;6.68;;;;;;;1.78;66.78;99404.75;4395147;32;19984;-81
2022/12/18 01:39:36;;;;;;;;;;;;;;;2.21;64.02;99407.88;4395186;32;20113;-81
2022/12/18 01:42:03;;;;;;;18.70;6.18;;;;;;;2.68;60.85;99408.44;4381529;32;20333;-81
2022/12/18 01:45:07;;;;;;;16.25;5.72;;;;;;;2.13;63.81;99417.13;4395166;32;20563;-81
2022/12/18 01:47:45;;;;;;;21.95;7.32;;;;;;;2.11;63.54;99427.28;4394962;32;20082;-81
2022/12/18 01:50:19;;;;;;;19.77;7.10;;;;;;;1.61;64.05;99424.03;4395102;32;20141;-81
2022/12/18 01:52:59;;;;;;;10.43;4.35;;;;;;;1.48;65.10;99422.97;4380540;32;20117;-81
2022/12/18 01:55:28;;;;;;;14.93;4.57;;;;;;;0.77;70.32;99420.94;4392843;32;20090;-81
2022/12/18 01:57:59;;;;;;;14.65;5.60;;;;;;;0.50;72.31;99428.03;4394114;32;20269;-81
2022/12/18 02:00:26;;;;;;;18.20;6.57;;;;;;;0.40;72.58;99413.44;4392827;32;20124;-81
2022/12/18 02:02:53;;;;;;;14.75;4.97;;;;;;;0.86;70.19;99421.13;4393854;32;20551;-81
2022/12/18 02:05:45;;;;;;;15.57;5.55;;;;;;;0.65;70.23;99419.88;4394121;32;20090;-81
2022/12/18 02:08:27;;;;;;;13.73;4.90;;;;;;;0.74;71.02;99422.56;4392726;32;20108;-81
2022/12/18 02:11:05;;;;;;;18.20;6.25;;;;;;;1.06;68.87;99415.50;4392706;32;20124;-81
2022/12/18 02:14:05;;;;;;;15.00;5.78;;;;;;;1.54;67.40;99432.41;4393964;32;20117;-81
2022/12/18 02:16:46;;;;;;;16.23;5.22;;;;;;;1.53;67.03;99436.63;4393892;32;20429;-81
2022/12/18 02:19:56;;;;;;;18.10;6.05;;;;;;;1.43;66.91;99440.72;4392869;32;20445;-81
2022/12/18 02:22:48;;;;;;;19.12;7.45;;;;;;;2.08;64.62;99444.22;4364950;32;20098;-81
2022/12/18 02:25:52;;;;;;;19.10;7.18;;;;;;;2.55;60.84;99453.31;4392819;32;20164;-81
2022/12/18 02:28:21;;;;;;;18.92;6.85;;;;;;;2.52;60.24;99452.41;4393794;32;20105;-81
2022/12/18 02:30:49;;;;;;;15.90;6.35;;;;;;;2.09;61.72;99458.66;4392091;32;20083;-81
2022/12/18 02:33:16;;;;;;;20.80;7.30;;;;;;;2.44;59.01;99459.94;4392720;32;20106;-81
2022/12/18 02:35:45;;;;;;;15.82;5.68;;;;;;;2.34;60.28;99465.78;4379917;32;20117;-81
2022/12/18 02:38:12;;;;;;;13.57;4.80;;;;;;;2.70;58.78;99474.72;4393755;32;20126;-81
2022/12/18 02:40:40;;;;;;;17.55;5.30;;;;;;;1.28;63.31;99476.09;4393355;32;20109;-81
2022/12/18 02:43:11;;;;;;;16.15;6.03;;;;;;;0.23;69.04;99474.91;4393604;32;20124;-81
2022/12/18 02:45:56;;;;;;;16.30;6.37;;;;;;;0.70;68.46;99475.00;4393802;32;20105;-81
2022/12/18 02:48:31;;;;;;;16.20;5.93;;;;;;;1.16;66.06;99474.16;4393594;32;20082;-81
2022/12/18 02:51:06;;;;;;;16.17;5.70;;;;;;;0.36;69.45;99478.56;4392164;32;20205;-81
2022/12/18 02:53:45;;;;;;;18.98;6.50;;;;;;;1.43;65.73;99480.56;4387464;32;226093;-81
2022/12/18 02:56:17;;;;;;;18.08;5.97;;;;;;;1.66;63.30;99486.88;4394633;32;20112;-81
2022/12/18 02:58:55;;;;;;;16.95;6.80;;;;;;;2.15;61.68;99494.38;4393407;32;20105;-81
2022/12/18 03:01:38;;;;;;;16.67;6.85;;;;;;;2.77;59.19;99497.75;4393260;32;20101;-81
2022/12/18 03:04:17;;;;;;;18.05;7.20;;;;;;;3.38;56.88;99503.44;4394292;32;20380;-81
2022/12/18 03:06:47;;;;;;;18.62;7.03;;;;;;;3.67;54.64;99497.75;4393396;32;20113;-81
2022/12/18 03:09:19;;;;;;;18.40;6.93;;;;;;;3.58;53.80;99495.97;4394554;32;20129;-81
2022/12/18 03:14:37;;;;;;;17.30;6.43;;;;;;;3.25;54.81;99513.53;4393428;32;20457;-81
2022/12/18 03:17:06;;;;;;;18.50;7.20;;;;;;;3.80;52.92;99503.81;4394397;32;20117;-81
2022/12/18 03:19:34;;;;;;;17.85;7.07;;;;;;;3.67;52.84;99503.72;4393891;32;20134;-81
2022/12/18 03:22:03;;;;;;;20.67;7.37;;;;;;;3.84;52.19;99506.41;4394028;32;20153;-81
2022/12/18 03:24:31;;;;;;;17.35;6.90;;;;;;;4.07;51.63;99501.47;4394272;32;20114;-81
2022/12/18 03:27:01;;;;;;;17.27;7.22;;;;;;;4.14;50.99;99518.50;4392902;32;20171;-81
2022/12/18 03:29:35;;;;;;;16.02;6.50;;;;;;;4.80;49.16;99522.28;4392972;32;20164;-81
2022/12/18 03:32:06;;;;;;;15.13;6.00;;;;;;;5.57;47.00;99520.75;4392644;32;20531;-81
2022/12/18 03:34:35;;;;;;;16.37;6.25;;;;;;;5.21;47.90;99526.69;4393014;32;20102;-81
2022/12/18 03:37:02;;;;;;;16.80;6.45;;;;;;;4.70;48.38;99528.22;4392890;32;20098;-81
2022/12/18 03:39:29;;;;;;;15.43;6.37;;;;;;;4.36;48.83;99524.62;4393646;32;20097;-81
2022/12/18 03:42:07;;;;;;;18.40;7.12;;;;;;;4.43;48.63;99534.03;4393973;32;20083;-81
2022/12/18 03:44:56;;;;;;;18.00;6.75;;;;;;;4.52;48.67;99534.09;4392884;32;20117;-81
2022/12/18 03:47:30;;;;;;;19.33;7.00;;;;;;;3.04;51.18;99539.66;4393681;32;20154;-81
2022/12/18 03:50:15;;;;;;;15.52;6.75;;;;;;;3.71;51.00;99543.72;4392701;32;20090;-81
2022/12/18 03:53:09;;;;;;;15.48;6.45;;;;;;;2.45;55.18;99548.31;4392358;32;20361;-81
2022/12/18 03:55:36;;;;;;;16.85;6.30;;;;;;;3.30;53.45;99545.06;4394889;32;20111;-81
2022/12/18 03:58:06;;;;;;;17.48;6.85;;;;;;;4.04;51.28;99537.16;4395932;32;20102;-81
2022/12/18 04:00:33;;;;;;;15.80;5.75;;;;;;;4.30;50.38;99539.91;4394358;32;20083;-81
2022/12/18 04:03:02;;;;;;;17.95;6.68;;;;;;;4.30;49.73;99543.31;4395823;32;20373;-81
2022/12/18 04:05:29;;;;;;;17.10;6.70;;;;;;;3.94;50.48;99545.66;4395889;32;20567;-81
2022/12/18 04:07:56;;;;;;;18.98;7.75;;;;;;;4.28;48.93;99545.03;4395630;32;20105;-81
2022/12/18 04:10:23;;;;;;;22.33;8.32;;;;;;;4.23;48.73;99558.59;4394613;32;20093;-81
2022/12/18 04:12:50;;;;;;;21.65;8.15;;;;;;;3.57;49.92;99562.31;4395623;32;20453;-81
2022/12/18 04:15:17;;;;;;;16.55;6.62;;;;;;;3.02;51.98;99566.84;4394506;32;20117;-81
2022/12/18 04:17:48;;;;;;;15.80;6.55;;;;;;;3.19;52.02;99563.66;4395812;32;20094;-81
2022/12/18 04:20:16;;;;;;;16.92;6.87;;;;;;;3.42;51.40;99565.59;4395603;32;20087;-81
2022/12/18 04:22:42;;;;;;;15.65;6.15;;;;;;;3.83;50.62;99570.19;4395456;32;20075;-81
2022/12/18 04:25:09;;;;;;;14.70;6.10;;;;;;;3.68;51.28;99571.78;4395747;32;20130;-81
2022/12/18 04:27:36;;;;;;;;;;;;;;;4.52;48.16;99569.88;4396060;32;20094;-81
2022/12/18 04:30:03;;;;;;;14.23;5.30;;;;;;;4.31;48.07;99572.28;4395533;32;19974;-81
2022/12/18 04:32:30;;;;;;;16.27;5.37;;;;;;;4.31;47.56;99574.84;4395573;32;20158;-81
2022/12/18 04:34:57;;;;;;;17.27;6.37;;;;;;;4.08;48.85;99574.69;4395562;32;20362;-81
2022/12/18 04:37:24;;;;;;;15.82;6.25;;;;;;;3.65;49.54;99583.69;4395622;32;20106;-81
2022/12/18 04:39:51;;;;;;;;;;;;;;;3.29;51.29;99577.34;4395776;32;20102;-81
2022/12/18 04:42:17;;;;;;;14.13;4.78;;;;;;;3.73;51.02;99582.91;4395470;32;19962;-81
2022/12/18 04:44:44;;;;;;;16.00;5.90;;;;;;;3.66;50.66;99593.03;4395601;32;20443;-81
2022/12/18 04:47:11;;;;;;;14.65;5.53;;;;;;;4.13;50.14;99590.88;4395629;32;20426;-81
2022/12/18 04:49:38;;;;;;;;;;;;;;;3.26;51.54;99590.06;4394491;32;20098;-81
2022/12/18 04:52:05;;;;;;;16.33;5.18;;;;;;;3.42;51.27;99583.47;4395353;32;19962;-81
2022/12/18 04:54:31;;;;;;;;;;;;;;;3.03;51.78;99587.25;4395924;32;20120;-81
2022/12/18 04:56:58;;;;;;;14.87;5.18;;;;;;;2.99;52.31;99582.13;4395411;32;19996;-81
2022/12/18 04:59:25;;;;;;;;;;;;;;;2.40;53.98;99580.47;4395869;32;20101;-81
2022/12/18 05:01:52;;;;;;;13.68;5.10;;;;;;;2.84;52.83;99583.63;4395241;32;20324;-81
2022/12/18 05:04:19;;;;;;;16.17;5.80;;;;;;;2.99;52.26;99593.19;4395262;32;20098;-81
2022/12/18 05:06:46;;;;;;;17.52;6.12;;;;;;;3.18;51.36;99594.22;4395461;32;20161;-81
2022/12/18 05:09:13;;;;;;;17.23;6.28;;;;;;;3.68;49.88;99589.66;4395499;32;20153;-81
2022/12/18 05:11:40;;;;;;;16.02;6.50;;;;;;;4.00;48.08;99596.75;4395149;32;20090;-81
2022/12/18 05:14:07;;;;;;;;;;;;;;;4.23;47.66;99594.38;4395660;32;20129;-81
2022/12/18 05:16:34;;;;;;;15.43;5.43;;;;;;;4.16;47.63;99600.28;4395499;32;19996;-81
2022/12/18 05:19:01;;;;;;;15.20;5.65;;;;;;;3.94;48.71;99605.22;4395223;32;20515;-81
2022/12/18 05:21:27;;;;;;;;;;;;;;;3.32;50.37;99610.56;4395338;32;20495;-81
2022/12/18 05:23:54;;;;;;;17.77;6.45;;;;;;;2.99;50.86;99612.72;4395520;32;20407;-81
2022/12/18 05:26:21;;;;;;;18.58;6.53;;;;;;;2.87;51.14;99610.84;4395110;32;20149;-81
2022/12/18 05:28:48;;;;;;;17.83;7.07;;;;;;;2.66;51.56;99620.75;4395283;32;20149;-81
2022/12/18 05:31:15;;;;;;;20.02;6.53;;;;;;;2.18;53.43;99625.16;4394925;32;20078;-81
2022/12/18 05:33:42;;;;;;;17.73;6.57;;;;;;;2.66;51.44;99626.72;4395329;32;20090;-81
2022/12/18 05:36:09;;;;;;;18.42;6.87;;;;;;;2.43;52.77;99634.00;4395244;32;20141;-81
2022/12/18 05:38:38;;;;;;;22.40;7.32;;;;;;;2.16;53.49;99629.38;4393872;32;20086;-81
2022/12/18 05:41:06;;;;;;;17.85;7.15;;;;;;;2.33;53.27;99639.81;4393790;32;20161;-81
2022/12/18 05:43:36;;;;;;;26.12;9.10;;;;;;;2.97;51.85;99638.16;4395225;32;20098;-81
2022/12/18 05:46:09;;;;;;;19.37;8.05;;;;;;;3.53;49.85;99634.59;4393870;32;20115;-81
2022/12/18 05:48:35;;;;;;;21.95;8.38;;;;;;;3.29;50.20;99645.38;4395153;32;20487;-81
2022/12/18 05:51:06;;;;;;;;;;;;;;;2.76;51.39;99641.28;4395191;32;20454;-81
2022/12/18 05:53:34;;;;;;;22.45;7.78;;;;;;;2.07;52.57;99646.19;4393628;32;20041;-81
2022/12/18 05:56:03;;;;;;;24.90;8.65;;;;;;;2.36;52.23;99655.16;4394004;32;20172;-81
2022/12/18 05:58:30;;;;;;;24.87;10.90;;;;;;;2.43;52.01;99658.63;4393974;32;20762;-81
2022/12/18 06:00:58;;;;;;;25.67;8.98;;;;;;;2.69;51.56;99667.53;4394572;32;20117;-81
2022/12/18 06:03:25;;;;;;;26.37;9.38;;;;;;;1.80;54.07;99675.41;4393964;32;20094;-81
2022/12/18 06:05:59;;;;;;;24.87;9.13;;;;;;;2.93;51.61;99664.47;4395218;32;20107;-81
2022/12/18 06:08:26;;;;;;;23.95;9.85;;;;;;;3.09;50.95;99678.31;4394828;32;20090;-81
2022/12/18 06:10:53;;;;;;;;;;;;;;;2.25;52.20;99682.16;4395137;32;20086;-81
2022/12/18 06:13:20;;;;;;;25.55;10.02;;;;;;;2.07;52.97;99687.78;4395034;32;19978;-81
2022/12/18 06:15:47;;;;;;;28.50;11.85;;;;;;;2.81;51.82;99693.22;4394347;32;20086;-81
2022/12/18 06:18:14;;;;;;;28.08;10.73;;;;;;;1.67;54.51;99687.03;4394991;32;20098;-81
2022/12/18 06:20:41;;;;;;;31.95;11.32;;;;;;;2.54;52.86;99693.63;4394572;32;20083;-81
2022/12/18 06:23:09;;;;;;;28.00;10.80;;;;;;;2.66;52.56;99702.31;4393858;32;20107;-81
2022/12/18 06:25:38;;;;;;;26.00;10.27;;;;;;;2.99;52.45;99696.87;4395010;32;20109;-81
2022/12/18 06:28:05;;;;;;;27.80;10.43;;;;;;;3.40;50.99;99697.38;4393540;32;20086;-81
2022/12/18 06:30:32;;;;;;;30.45;11.05;;;;;;;3.07;51.46;99700.34;4393541;32;20401;-81
2022/12/18 06:32:59;;;;;;;23.55;8.77;;;;;;;2.97;51.71;99698.50;4394722;32;20690;-81
2022/12/18 06:35:26;;;;;;;27.42;9.68;;;;;;;2.51;52.98;99705.47;4394721;32;20158;-81
2022/12/18 06:37:53;;;;;;;29.05;10.18;;;;;;;2.89;52.57;99698.44;4394764;32;20105;-81
2022/12/18 06:40:20;;;;;;;24.80;9.32;;;;;;;2.40;52.88;99692.56;4394614;32;20101;-81
2022/12/18 06:42:46;;;;;;;26.17;9.50;;;;;;;1.71;55.11;99695.63;4394656;32;20099;-81
2022/12/18 06:45:13;;;;;;;;;;;;;;;2.16;54.48;99708.31;4394939;32;20436;-81
2022/12/18 06:47:40;;;;;;;20.15;8.70;;;;;;;2.99;52.24;99704.50;4394853;32;19984;-81
2022/12/18 06:50:07;;;;;;;27.48;10.10;;;;;;;3.28;51.40;99704.88;4394480;32;20086;-81
2022/12/18 06:52:34;;;;;;;24.58;8.95;;;;;;;2.36;53.23;99717.97;4394275;32;20488;-81
2022/12/18 06:55:01;;;;;;;32.55;14.32;;;;;;;1.81;55.21;99724.59;4394651;32;20103;-81
2022/12/18 06:57:28;;;;;;;38.45;15.02;;;;;;;2.10;55.27;99726.00;4394516;32;20086;-81
2022/12/18 06:59:55;;;;;;;38.70;14.87;;;;;;;2.25;54.26;99736.47;4393289;32;20070;-81
2022/12/18 07:02:22;;;;;;;33.05;11.93;;;;;;;2.53;54.56;99731.84;4394247;32;20429;-81
2022/12/18 07:04:49;;;;;;;30.02;12.05;;;;;;;2.32;56.32;99742.53;4394484;32;20090;-81
2022/12/18 07:07:15;;;;;;;;;;;;;;;3.85;53.00;99743.03;4394825;32;20433;-81
2022/12/18 07:09:42;;;;;;;34.05;12.77;;;;;;;4.32;51.58;99748.63;4394171;32;20411;-81
2022/12/18 07:12:09;;;;;;;27.13;11.45;;;;;;;4.31;51.88;99749.47;4394405;32;20095;-81
2022/12/18 07:14:36;;;;;;;;;;;;;;;5.08;50.47;99747.50;4394751;32;20094;-81
2022/12/18 07:17:02;;;;;;;26.98;11.05;;;;;;;5.58;48.36;99760.59;4394241;32;19970;-81
2022/12/18 07:19:29;;;;;;;28.87;12.02;;;;;;;6.33;46.91;99758.28;4394210;32;20144;-81
2022/12/18 07:21:57;;;;;;;26.83;11.88;;;;;;;7.33;44.55;99766.78;4394148;32;20098;-81
2022/12/18 07:24:24;;;;;;;29.10;11.05;;;;;;;7.74;41.05;99774.38;4392911;32;20106;-81
2022/12/18 07:26:51;;;;;;;;;;;;;;;7.02;41.73;99772.00;4394539;32;20091;-81
2022/12/18 07:29:18;;;;;;;24.42;9.48;;;;;;;7.02;41.85;99787.41;4395373;32;19985;-81
2022/12/18 07:31:45;;;;;;;25.62;9.85;;;;;;;7.10;42.07;99783.09;4395801;32;20094;-82
2022/12/18 07:34:13;;;;;;;24.90;10.93;;;;;;;7.51;41.08;99790.72;4396071;32;20507;-81
2022/12/18 07:36:40;;;;;;;25.00;10.35;;;;;;;7.62;41.00;99800.12;4394869;32;20440;-81
2022/12/18 07:39:07;;;;;;;28.80;11.55;;;;;;;8.61;39.30;99804.78;4395758;32;20079;-81
2022/12/18 07:41:34;;;;;;;24.67;9.75;;;;;;;8.76;38.25;99803.84;4395655;32;20103;-81
2022/12/18 07:44:00;;;;;;;;;;;;;;;8.69;38.51;99813.31;4396366;32;20090;-81
2022/12/18 07:46:27;;;;;;;22.37;9.20;;;;;;;8.42;39.30;99808.38;4395835;32;19970;-82
2022/12/18 07:48:54;;;;;;;27.40;10.90;;;;;;;8.85;39.22;99814.94;4395910;32;20168;-82
2022/12/18 07:51:21;;;;;;;;;;;;;;;9.62;38.02;99822.81;4396005;32;20346;-82
2022/12/18 07:53:48;;;;;;;22.70;9.75;;;;;;;9.76;37.60;99815.78;4395721;32;19981;-82
2022/12/18 07:56:18;;;;;;;20.88;9.70;;;;;;;10.11;36.97;99819.69;4396010;32;20102;-82
2022/12/18 07:58:56;;;;;;;23.48;10.43;;;;;;;10.36;36.59;99825.37;4394676;32;20734;-82
2022/12/18 08:01:23;;;;;;;23.23;9.52;;;;;;;10.47;36.22;99823.50;4394407;32;20102;-82
2022/12/18 08:03:50;;;;;;;23.48;10.45;;;;;;;10.28;36.63;99829.78;4395872;32;20107;-83
2022/12/18 08:06:18;;;;;;;25.77;11.05;;;;;;;10.45;36.76;99827.84;4395587;32;20082;-83
2022/12/18 08:08:52;;;;;;;26.87;12.07;;;;;;;10.89;35.88;99832.34;4395805;32;20105;-83
2022/12/18 08:11:19;;;;;;;24.92;10.52;;;;;;;10.25;37.49;99827.25;4395479;32;20164;-82
2022/12/18 08:13:47;;;;;;;23.98;10.27;;;;;;;10.91;36.79;99829.75;4395610;32;20408;-83
2022/12/18 08:16:14;;;;;;;25.80;10.80;;;;;;;10.10;36.77;99834.28;4395725;32;20366;-83
2022/12/18 08:18:41;;;;;;;26.12;10.90;;;;;;;9.48;38.90;99837.56;4395711;32;20175;-83
2022/12/18 08:21:15;;;;;;;;;;;;;;;8.77;40.72;99833.87;4395486;32;20106;-82
2022/12/18 08:23:42;;;;;;;23.35;10.25;;;;;;;8.47;41.67;99819.47;4395913;32;20093;-83
2022/12/18 08:26:11;;;;;;;27.20;10.85;;;;;;;8.75;41.48;99828.75;4394686;32;20152;-83
2022/12/18 08:28:38;;;;;;;24.30;10.77;;;;;;;9.14;41.19;99824.13;4395594;32;20082;-83
2022/12/18 08:31:05;;;;;;;25.88;11.10;;;;;;;9.52;40.17;99831.50;4395563;32;20110;-83
2022/12/18 08:33:33;;;;;;;25.50;10.90;;;;;;;9.28;40.33;99832.59;4395382;32;20109;-83
2022/12/18 08:36:00;;;;;;;24.17;11.07;;;;;;;9.48;40.23;99838.41;4394569;32;20105;-83
2022/12/18 08:38:27;;;;;;;27.30;11.68;;;;;;;9.05;40.77;99835.38;4394479;32;20109;-83
2022/12/18 08:41:02;;;;;;;27.60;12.20;;;;;;;8.86;41.56;99837.22;4394986;32;20108;-83
2022/12/18 08:46:14;;;;;;;26.73;11.38;;;;;;;8.35;42.66;99828.97;4395714;32;20139;-83
2022/12/18 08:48:41;;;;;;;24.40;11.43;;;;;;;7.60;44.20;99824.97;4395278;32;20083;-83
2022/12/18 08:51:09;;;;;;;29.33;12.37;;;;;;;7.96;43.64;99821.41;4394082;32;20413;-82
2022/12/18 08:53:36;;;;;;;27.67;11.50;;;;;;;8.61;43.06;99831.41;4395252;32;20112;-83
2022/12/18 08:56:05;;;;;;;23.42;10.90;;;;;;;8.00;44.46;99833.41;4393920;32;20102;-83
2022/12/18 08:58:32;;;;;;;25.40;9.95;;;;;;;8.61;42.11;99834.00;4395471;32;20829;-83
2022/12/18 09:01:03;;;;;;;24.20;9.88;;;;;;;9.14;41.45;99824.97;4395261;32;20118;-82
2022/12/18 09:03:31;;;;;;;24.02;10.32;;;;;;;9.51;40.16;99825.50;4395209;32;20452;-83
2022/12/18 09:05:58;;;;;;;22.13;9.82;;;;;;;9.77;40.03;99826.94;4395446;32;20090;-83
2022/12/18 09:08:25;;;;;;;21.67;9.68;;;;;;;9.91;39.88;99819.06;4395253;32;20432;-83
2022/12/18 09:10:52;;;;;;;21.58;8.65;;;;;;;10.67;37.80;99823.22;4394960;32;20117;-83
2022/12/18 09:13:19;;;;;;;22.13;9.35;;;;;;;11.46;36.55;99829.66;4395340;32;20114;-83
2022/12/18 09:15:47;;;;;;;;;;;;;;;11.83;35.61;99829.00;4395432;32;20101;-83
2022/12/18 09:18:15;;;;;;;23.33;9.90;;;;;;;11.79;35.64;99833.37;4395364;32;19984;-83
2022/12/18 09:20:42;;;;;;;19.42;8.32;;;;;;;12.25;35.44;99835.06;4395093;32;20091;-83
2022/12/18 09:23:10;;;;;;;22.10;8.73;;;;;;;12.52;35.33;99836.19;4395058;32;20091;-83
2022/12/18 09:25:37;;;;;;;22.20;9.13;;;;;;;13.08;33.66;99846.09;4395321;32;20086;-83
2022/12/18 09:28:12;;;;;;;19.52;8.45;;;;;;;13.56;33.26;99837.12;4395269;32;20112;-83
2022/12/18 09:30:41;;;;;;;20.00;8.93;;;;;;;12.94;33.69;99846.44;4394854;32;20409;-83
2022/12/18 09:33:08;;;;;;;19.05;8.75;;;;;;;13.63;32.66;99837.84;4394142;32;20441;-83
2022/12/18 09:35:38;;;;;;;21.12;8.88;;;;;;;14.19;32.30;99844.03;4395252;32;20078;-83
2022/12/18 09:38:05;;;;;;;21.62;9.82;;;;;;;14.35;32.27;99843.56;4394850;32;20144;-83
2022/12/18 09:40:53;;;;;;;19.83;9.10;;;;;;;14.76;31.20;99851.00;4395289;32;20133;-83
2022/12/18 09:43:27;;;;;;;19.05;8.73;;;;;;;15.19;30.55;99848.78;4393858;32;20363;-83
2022/12/18 09:46:01;;;;;;;21.02;9.00;;;;;;;15.34;29.74;99849.13;4394955;32;20437;-83
2022/12/18 09:48:32;;;;;;;17.08;8.13;;;;;;;16.01;29.35;99840.75;4394123;32;20125;-83
2022/12/18 09:51:04;;;;;;;17.40;7.70;;;;;;;16.70;27.92;99841.63;4393073;32;20161;-83
2022/12/18 09:53:33;;;;;;;18.02;7.72;;;;;;;16.97;27.09;99842.28;4393847;32;20094;-84
2022/12/18 09:56:00;;;;;;;16.92;7.62;;;;;;;17.09;27.57;99840.06;4395208;32;20094;-83
2022/12/18 09:58:44;;;;;;;17.37;7.72;;;;;;;17.07;27.55;99845.38;4393535;32;20377;-83
2022/12/18 10:01:22;;;;;;;16.55;7.55;;;;;;;14.44;30.37;99836.38;4393769;32;20102;-83
2022/12/18 10:03:50;;;;;;;18.35;7.97;;;;;;;16.70;28.00;99848.59;4395303;32;20098;-83
2022/12/18 10:06:34;;;;;;;17.52;8.23;;;;;;;16.76;27.80;99845.75;4393631;32;20090;-83
2022/12/18 10:09:20;;;;;;;18.37;8.32;;;;;;;16.60;26.85;99845.47;4395159;32;20152;-83
2022/12/18 10:12:06;;;;;;;17.55;8.43;;;;;;;16.48;27.29;99852.00;4393598;32;20098;-83
2022/12/18 10:14:44;;;;;;;19.23;8.43;;;;;;;16.95;27.24;99841.50;4395176;32;20155;-83
2022/12/18 10:17:28;;;;;;;19.35;9.10;;;;;;;16.99;26.45;99839.59;4395082;32;20082;-83
2022/12/18 10:19:55;;;;;;;18.30;8.43;;;;;;;16.56;27.11;99833.44;4394717;32;20082;-83
2022/12/18 10:22:27;;;;;;;17.75;7.80;;;;;;;15.39;28.14;99835.97;4394844;32;20117;-83
2022/12/18 10:25:32;;;;;;;17.55;7.55;;;;;;;13.29;31.63;99832.66;4394991;32;20095;-83
2022/12/18 10:28:08;;;;;;;18.73;7.57;;;;;;;13.05;31.87;99831.50;4394769;32;20104;-83
2022/12/18 10:30:34;;;;;;;17.33;7.60;;;;;;;14.59;29.40;99829.06;4393726;32;20082;-83
2022/12/18 10:33:02;;;;;;;16.67;7.12;;;;;;;14.85;29.13;99828.22;4394587;32;20110;-83
2022/12/18 10:35:29;;;;;;;16.05;7.22;;;;;;;14.90;27.69;99828.94;4393725;32;20121;-83
2022/12/18 10:38:11;;;;;;;16.02;6.93;;;;;;;13.78;29.73;99826.19;4394821;32;20148;-83
2022/12/18 10:40:56;;;;;;;14.23;6.10;;;;;;;15.71;27.37;99816.66;4394518;32;20440;-84
2022/12/18 10:43:27;;;;;;;14.57;6.50;;;;;;;16.73;26.00;99833.69;4393721;32;20094;-83
2022/12/18 10:46:08;;;;;;;15.77;7.18;;;;;;;16.66;25.90;99840.00;4393703;32;20468;-84
2022/12/18 10:48:47;;;;;;;13.77;5.57;;;;;;;16.22;26.95;99843.47;4394615;32;20128;-83
2022/12/18 10:51:33;;;;;;;13.52;6.10;;;;;;;15.41;26.92;99834.16;4394299;32;20082;-84
2022/12/18 10:54:19;;;;;;;14.98;5.95;;;;;;;14.91;27.92;99833.25;4394273;32;20350;-83
2022/12/18 10:56:47;;;;;;;14.65;6.10;;;;;;;13.98;30.18;99830.81;4393654;32;20106;-86
2022/12/18 10:59:16;;;;;;;13.65;5.05;;;;;;;12.49;32.14;99838.00;4393533;32;20087;-85
2022/12/18 11:01:45;;;;;;;15.50;5.47;;;;;;;12.93;31.12;99832.63;4394077;32;20168;-85
2022/12/18 11:04:20;;;;;;;13.40;5.40;;;;;;;13.74;29.80;99822.81;4394582;32;20118;-85
2022/12/18 11:07:04;;;;;;;13.40;5.87;;;;;;;12.70;32.35;99820.25;4394611;32;20103;-85
2022/12/18 11:09:32;;;;;;;15.68;6.10;;;;;;;9.59;37.00;99811.69;4394248;32;20142;-85
2022/12/18 11:12:14;;;;;;;16.67;6.40;;;;;;;9.69;38.06;99809.00;4393277;32;20101;-85
2022/12/18 11:14:41;;;;;;;17.30;6.72;;;;;;;11.29;35.20;99803.28;4393365;32;20110;-85
2022/12/18 11:17:28;;;;;;;13.80;5.95;;;;;;;10.93;35.20;99800.41;4394355;32;20133;-86
2022/12/18 11:19:57;;;;;;;16.65;7.37;;;;;;;13.56;31.42;99805.16;4393138;32;20462;-85
2022/12/18 11:22:29;;;;;;;16.65;6.87;;;;;;;13.94;32.21;99796.31;4393893;32;20085;-85
2022/12/18 11:25:02;;;;;;;15.23;5.90;;;;;;;14.41;31.21;99801.84;4393166;32;20400;-85
2022/12/18 11:27:55;;;;;;;14.90;5.82;;;;;;;13.79;31.94;99799.34;4394109;32;20381;-85
2022/12/18 11:30:26;;;;;;;20.42;9.43;;;;;;;14.75;30.24;99794.72;4393863;32;20113;-85
2022/12/18 11:33:03;;;;;;;21.20;9.80;;;;;;;14.91;30.22;99789.91;4394165;32;20104;-83
2022/12/18 11:35:32;;;;;;;21.37;9.57;;;;;;;14.02;31.47;99790.91;4393117;32;20122;-83
2022/12/18 11:38:07;;;;;;;20.80;9.07;;;;;;;14.08;31.64;99791.56;4393917;32;20095;-83
2022/12/18 11:40:36;;;;;;;24.25;12.50;;;;;;;15.10;29.98;99797.94;4392850;32;20101;-83
2022/12/18 11:43:16;;;;;;;25.60;11.32;;;;;;;14.41;31.76;99802.69;4392625;32;20074;-83
2022/12/18 11:45:52;;;;;;;24.08;11.60;;;;;;;14.57;31.69;99803.13;4392910;32;20121;-83
2022/12/18 11:48:25;;;;;;;27.40;13.23;;;;;;;13.53;34.33;99806.09;4392874;32;20106;-83
2022/12/18 11:50:56;;;;;;;26.52;12.52;;;;;;;13.64;34.87;99811.00;4393373;32;20113;-83
2022/12/18 11:53:25;;;;;;;26.80;13.40;;;;;;;11.66;38.15;99818.94;4392468;32;20082;-83
2022/12/18 11:56:04;;;;;;;24.92;12.43;;;;;;;12.85;37.32;99815.56;4393812;32;20471;-83
2022/12/18 11:58:37;;;;;;;22.25;10.77;;;;;;;12.72;36.86;99815.00;4393598;32;20113;-83